Huvudsida
METAR-TAF:

METAR-TAF

Flygplatser :

Bandar Lengeh Airport

Bandar Lengeh, Iran

latitud: 26-35N, longitud: 054-50E, höjd: 14 m

Aktuellt väderrapport

Denna rapport gjordes för 41 minuter sedan, klockan 04:00 UTC
Vind 4 kt från nord
Temperatur 19°C
Fuktighet 100%
Tryck 1013 hPa
Sikt: 4000 m
Få moln på en höjd av 1000 ft
Få moln på en höjd av 2500 ft, Cumulonimbus.
Spridda moln på en höjd av 3000 ft
Mulet på en höjd av 7000 ft
åska, lätt regn

METAR: OIBL 200400Z 36004KT 4000 -TSRA FEW010 FEW025CB SCT030 OVC070 19/19 Q1013

Tid: 08:11 (04:41 UTC)


TAF: saknas

Aktuella väderrapporter och prognoser från 4000 flygplatser (METAR- och TAF-rapporter).

De tillgängliga stationerna syns som gula och röda prickar på kartan.

För musen över prickarna för att se namnen på stationerna.

Klicka sedan för att få väderrapporter och prognoser.

För att ändra kartan: Klicka på de gröna knapparna med ett svart kors på för att zooma in; den gröna knappen med ett streck på för att zooma ut; eller på de gröna pilarna för angränsande kartor.


METAR-TAF: